Tishomingo, Oklahoma
Current Conditions -  °F | °C
As of 1:35 AM on Wednesday 22 Oct 2014 (Local Time) from KADM Reporting Station
Haze Haze  
Wind Chill: 57°   Ceiling: Unl
Heat Index: 57°   Visibility: 2.5mi
Dew Point: 56°   Wind: 0mph
Humidity: 99%   Direction: NA
Pressure: 30.07"   Gusts: NA
Location:  34.24°N, 96.68°W
Report Text: KADM 220635Z AUTO 00000KT 2 1/2SM BR CLR 14/14 A3007 RMK AO2 T01370136
Loading
Personal Weather Stations






























Interactive Weather Map
Tropical Storm Tracking
New forecast layout! Learn more

10-Day Weather Forecast

Advertisements
Track Severe Weather on mobile